sensor_id;sensor_type;location;lat;lon;timestamp;P1;durP1;ratioP1;P2;durP2;ratioP2
78728;SDS011;68252;44.944;20.218;2024-03-08T00:01:12;47.17;;;26.30;;
78728;SDS011;68252;44.944;20.218;2024-03-08T00:03:39;51.92;;;25.95;;
78728;SDS011;68252;44.944;20.218;2024-03-08T00:06:05;49.92;;;25.52;;
78728;SDS011;68252;44.944;20.218;2024-03-08T00:08:31;55.83;;;27.02;;
78728;SDS011;68252;44.944;20.218;2024-03-08T00:10:57;51.58;;;25.92;;
78728;SDS011;68252;44.944;20.218;2024-03-08T00:13:24;52.22;;;26.67;;
78728;SDS011;68252;44.944;20.218;2024-03-08T00:15:50;47.50;;;24.63;;
78728;SDS011;68252;44.944;20.218;2024-03-08T00:18:16;50.40;;;25.98;;
78728;SDS011;68252;44.944;20.218;2024-03-08T00:20:42;44.90;;;24.77;;
78728;SDS011;68252;44.944;20.218;2024-03-08T00:23:10;47.40;;;24.88;;
78728;SDS011;68252;44.944;20.218;2024-03-08T00:25:36;44.65;;;24.48;;
78728;SDS011;68252;44.944;20.218;2024-03-08T00:28:02;38.80;;;22.13;;
78728;SDS011;68252;44.944;20.218;2024-03-08T00:30:30;51.30;;;26.42;;
78728;SDS011;68252;44.944;20.218;2024-03-08T00:32:56;46.22;;;24.73;;
78728;SDS011;68252;44.944;20.218;2024-03-08T00:35:22;50.72;;;27.90;;
78728;SDS011;68252;44.944;20.218;2024-03-08T00:37:48;52.22;;;26.13;;
78728;SDS011;68252;44.944;20.218;2024-03-08T00:40:15;60.70;;;27.52;;
78728;SDS011;68252;44.944;20.218;2024-03-08T00:42:41;54.13;;;26.38;;
78728;SDS011;68252;44.944;20.218;2024-03-08T00:45:09;55.83;;;28.33;;
78728;SDS011;68252;44.944;20.218;2024-03-08T00:47:35;47.25;;;26.30;;
78728;SDS011;68252;44.944;20.218;2024-03-08T00:50:01;57.72;;;29.02;;
78728;SDS011;68252;44.944;20.218;2024-03-08T00:52:29;57.38;;;29.58;;
78728;SDS011;68252;44.944;20.218;2024-03-08T00:54:55;59.13;;;31.02;;
78728;SDS011;68252;44.944;20.218;2024-03-08T00:57:21;60.83;;;31.13;;
78728;SDS011;68252;44.944;20.218;2024-03-08T00:59:48;61.40;;;30.08;;
78728;SDS011;68252;44.944;20.218;2024-03-08T01:02:14;60.20;;;32.03;;
78728;SDS011;68252;44.944;20.218;2024-03-08T01:04:42;59.45;;;30.85;;
78728;SDS011;68252;44.944;20.218;2024-03-08T01:07:08;59.88;;;31.85;;
78728;SDS011;68252;44.944;20.218;2024-03-08T01:09:34;59.70;;;30.98;;
78728;SDS011;68252;44.944;20.218;2024-03-08T01:12:00;59.17;;;33.38;;
78728;SDS011;68252;44.944;20.218;2024-03-08T01:14:26;55.15;;;31.45;;
78728;SDS011;68252;44.944;20.218;2024-03-08T01:16:53;59.45;;;32.42;;
78728;SDS011;68252;44.944;20.218;2024-03-08T01:19:20;59.47;;;32.80;;
78728;SDS011;68252;44.944;20.218;2024-03-08T01:21:46;60.60;;;33.63;;
78728;SDS011;68252;44.944;20.218;2024-03-08T01:24:12;62.45;;;34.70;;
78728;SDS011;68252;44.944;20.218;2024-03-08T01:26:38;59.92;;;34.72;;
78728;SDS011;68252;44.944;20.218;2024-03-08T01:29:04;62.58;;;32.97;;
78728;SDS011;68252;44.944;20.218;2024-03-08T01:31:31;54.15;;;30.63;;
78728;SDS011;68252;44.944;20.218;2024-03-08T01:33:57;51.70;;;29.92;;
78728;SDS011;68252;44.944;20.218;2024-03-08T01:36:24;52.92;;;31.52;;
78728;SDS011;68252;44.944;20.218;2024-03-08T01:38:50;54.97;;;30.52;;
78728;SDS011;68252;44.944;20.218;2024-03-08T01:41:16;47.45;;;26.83;;
78728;SDS011;68252;44.944;20.218;2024-03-08T01:43:43;50.58;;;29.65;;
78728;SDS011;68252;44.944;20.218;2024-03-08T01:46:09;51.47;;;30.63;;
78728;SDS011;68252;44.944;20.218;2024-03-08T01:48:37;50.43;;;28.57;;
78728;SDS011;68252;44.944;20.218;2024-03-08T01:51:04;53.40;;;29.90;;
78728;SDS011;68252;44.944;20.218;2024-03-08T01:53:30;52.33;;;28.65;;
78728;SDS011;68252;44.944;20.218;2024-03-08T01:55:57;47.25;;;29.10;;
78728;SDS011;68252;44.944;20.218;2024-03-08T01:58:24;53.53;;;28.30;;
78728;SDS011;68252;44.944;20.218;2024-03-08T02:00:51;47.97;;;27.85;;
78728;SDS011;68252;44.944;20.218;2024-03-08T02:03:18;49.67;;;29.77;;
78728;SDS011;68252;44.944;20.218;2024-03-08T02:05:45;49.47;;;29.63;;
78728;SDS011;68252;44.944;20.218;2024-03-08T02:08:11;59.10;;;29.67;;
78728;SDS011;68252;44.944;20.218;2024-03-08T02:10:39;54.25;;;28.83;;
78728;SDS011;68252;44.944;20.218;2024-03-08T02:13:06;46.47;;;28.70;;
78728;SDS011;68252;44.944;20.218;2024-03-08T02:15:54;45.50;;;27.88;;
78728;SDS011;68252;44.944;20.218;2024-03-08T02:18:19;46.80;;;28.48;;
78728;SDS011;68252;44.944;20.218;2024-03-08T02:23:18;50.03;;;29.88;;
78728;SDS011;68252;44.944;20.218;2024-03-08T02:25:44;58.72;;;30.00;;
78728;SDS011;68252;44.944;20.218;2024-03-08T02:28:11;52.38;;;29.15;;
78728;SDS011;68252;44.944;20.218;2024-03-08T02:30:37;52.28;;;28.83;;
78728;SDS011;68252;44.944;20.218;2024-03-08T02:33:04;46.15;;;26.75;;
78728;SDS011;68252;44.944;20.218;2024-03-08T02:35:30;49.40;;;28.15;;
78728;SDS011;68252;44.944;20.218;2024-03-08T02:37:56;46.90;;;27.20;;
78728;SDS011;68252;44.944;20.218;2024-03-08T02:40:22;43.10;;;25.70;;
78728;SDS011;68252;44.944;20.218;2024-03-08T02:42:48;36.65;;;22.40;;
78728;SDS011;68252;44.944;20.218;2024-03-08T02:45:14;25.67;;;16.77;;
78728;SDS011;68252;44.944;20.218;2024-03-08T02:47:40;21.45;;;13.25;;
78728;SDS011;68252;44.944;20.218;2024-03-08T02:50:06;19.23;;;11.27;;
78728;SDS011;68252;44.944;20.218;2024-03-08T02:52:36;17.92;;;11.05;;
78728;SDS011;68252;44.944;20.218;2024-03-08T02:55:03;17.20;;;11.02;;
78728;SDS011;68252;44.944;20.218;2024-03-08T02:57:31;17.80;;;11.10;;
78728;SDS011;68252;44.944;20.218;2024-03-08T02:59:57;17.17;;;12.15;;
78728;SDS011;68252;44.944;20.218;2024-03-08T03:02:24;14.25;;;9.65;;
78728;SDS011;68252;44.944;20.218;2024-03-08T03:04:51;15.70;;;10.27;;
78728;SDS011;68252;44.944;20.218;2024-03-08T03:07:18;16.20;;;10.55;;
78728;SDS011;68252;44.944;20.218;2024-03-08T03:09:44;16.58;;;10.45;;
78728;SDS011;68252;44.944;20.218;2024-03-08T03:12:10;18.90;;;11.65;;
78728;SDS011;68252;44.944;20.218;2024-03-08T03:14:36;14.90;;;10.70;;
78728;SDS011;68252;44.944;20.218;2024-03-08T03:17:06;17.10;;;11.23;;
78728;SDS011;68252;44.944;20.218;2024-03-08T03:19:32;14.77;;;9.70;;
78728;SDS011;68252;44.944;20.218;2024-03-08T03:21:58;17.02;;;10.48;;
78728;SDS011;68252;44.944;20.218;2024-03-08T03:24:24;18.13;;;11.90;;
78728;SDS011;68252;44.944;20.218;2024-03-08T03:26:54;19.45;;;12.07;;
78728;SDS011;68252;44.944;20.218;2024-03-08T03:29:20;17.77;;;10.98;;
78728;SDS011;68252;44.944;20.218;2024-03-08T03:31:46;17.20;;;10.23;;
78728;SDS011;68252;44.944;20.218;2024-03-08T03:34:12;15.65;;;10.32;;
78728;SDS011;68252;44.944;20.218;2024-03-08T03:36:39;17.45;;;9.90;;
78728;SDS011;68252;44.944;20.218;2024-03-08T03:39:08;14.38;;;9.95;;
78728;SDS011;68252;44.944;20.218;2024-03-08T03:41:41;14.75;;;9.75;;
78728;SDS011;68252;44.944;20.218;2024-03-08T03:44:07;15.73;;;10.00;;
78728;SDS011;68252;44.944;20.218;2024-03-08T03:46:33;16.10;;;10.73;;
78728;SDS011;68252;44.944;20.218;2024-03-08T03:49:00;15.63;;;10.27;;
78728;SDS011;68252;44.944;20.218;2024-03-08T03:51:28;18.10;;;10.43;;
78728;SDS011;68252;44.944;20.218;2024-03-08T03:53:55;16.70;;;10.88;;
78728;SDS011;68252;44.944;20.218;2024-03-08T03:56:25;16.52;;;10.60;;
78728;SDS011;68252;44.944;20.218;2024-03-08T04:01:18;19.92;;;10.98;;
78728;SDS011;68252;44.944;20.218;2024-03-08T04:03:44;20.27;;;11.00;;
78728;SDS011;68252;44.944;20.218;2024-03-08T04:06:10;15.38;;;10.65;;
78728;SDS011;68252;44.944;20.218;2024-03-08T04:08:36;20.52;;;11.73;;
78728;SDS011;68252;44.944;20.218;2024-03-08T04:11:02;25.08;;;10.75;;
78728;SDS011;68252;44.944;20.218;2024-03-08T04:13:29;34.72;;;14.45;;
78728;SDS011;68252;44.944;20.218;2024-03-08T04:15:55;25.67;;;13.73;;
78728;SDS011;68252;44.944;20.218;2024-03-08T04:18:21;33.58;;;16.48;;
78728;SDS011;68252;44.944;20.218;2024-03-08T04:20:47;21.50;;;13.32;;
78728;SDS011;68252;44.944;20.218;2024-03-08T04:23:13;20.70;;;13.20;;
78728;SDS011;68252;44.944;20.218;2024-03-08T04:25:39;18.33;;;11.95;;
78728;SDS011;68252;44.944;20.218;2024-03-08T04:28:07;24.75;;;12.80;;
78728;SDS011;68252;44.944;20.218;2024-03-08T04:30:35;27.50;;;14.18;;
78728;SDS011;68252;44.944;20.218;2024-03-08T04:33:02;25.55;;;13.98;;
78728;SDS011;68252;44.944;20.218;2024-03-08T04:35:28;19.27;;;12.57;;
78728;SDS011;68252;44.944;20.218;2024-03-08T04:37:55;18.95;;;12.15;;
78728;SDS011;68252;44.944;20.218;2024-03-08T04:40:22;21.13;;;12.35;;
78728;SDS011;68252;44.944;20.218;2024-03-08T04:42:49;33.45;;;15.18;;
78728;SDS011;68252;44.944;20.218;2024-03-08T04:45:16;100.00;;;20.35;;
78728;SDS011;68252;44.944;20.218;2024-03-08T04:47:42;65.72;;;17.50;;
78728;SDS011;68252;44.944;20.218;2024-03-08T04:50:08;24.02;;;12.80;;
78728;SDS011;68252;44.944;20.218;2024-03-08T04:52:34;18.80;;;11.43;;
78728;SDS011;68252;44.944;20.218;2024-03-08T04:55:01;17.13;;;11.15;;
78728;SDS011;68252;44.944;20.218;2024-03-08T04:57:29;30.25;;;13.63;;
78728;SDS011;68252;44.944;20.218;2024-03-08T04:59:55;23.27;;;12.43;;
78728;SDS011;68252;44.944;20.218;2024-03-08T05:02:24;16.70;;;10.50;;
78728;SDS011;68252;44.944;20.218;2024-03-08T05:04:50;21.10;;;12.77;;
78728;SDS011;68252;44.944;20.218;2024-03-08T05:07:17;17.17;;;10.23;;
78728;SDS011;68252;44.944;20.218;2024-03-08T05:09:44;16.70;;;9.80;;
78728;SDS011;68252;44.944;20.218;2024-03-08T05:12:16;18.02;;;10.32;;
78728;SDS011;68252;44.944;20.218;2024-03-08T05:14:42;16.58;;;9.63;;
78728;SDS011;68252;44.944;20.218;2024-03-08T05:17:08;16.15;;;9.60;;
78728;SDS011;68252;44.944;20.218;2024-03-08T05:19:35;17.25;;;9.77;;
78728;SDS011;68252;44.944;20.218;2024-03-08T05:22:02;12.85;;;8.02;;
78728;SDS011;68252;44.944;20.218;2024-03-08T05:24:28;14.10;;;9.05;;
78728;SDS011;68252;44.944;20.218;2024-03-08T05:26:55;12.05;;;7.95;;
78728;SDS011;68252;44.944;20.218;2024-03-08T05:29:21;10.38;;;7.38;;
78728;SDS011;68252;44.944;20.218;2024-03-08T05:31:49;16.13;;;8.68;;
78728;SDS011;68252;44.944;20.218;2024-03-08T05:34:16;12.52;;;8.00;;
78728;SDS011;68252;44.944;20.218;2024-03-08T05:36:42;15.63;;;9.70;;
78728;SDS011;68252;44.944;20.218;2024-03-08T05:39:20;15.48;;;8.65;;
78728;SDS011;68252;44.944;20.218;2024-03-08T05:41:47;13.45;;;8.45;;
78728;SDS011;68252;44.944;20.218;2024-03-08T05:44:13;13.38;;;7.53;;
78728;SDS011;68252;44.944;20.218;2024-03-08T05:46:39;15.23;;;9.15;;
78728;SDS011;68252;44.944;20.218;2024-03-08T05:49:06;17.50;;;9.65;;
78728;SDS011;68252;44.944;20.218;2024-03-08T05:54:04;22.02;;;13.05;;
78728;SDS011;68252;44.944;20.218;2024-03-08T05:56:33;17.35;;;10.43;;
78728;SDS011;68252;44.944;20.218;2024-03-08T05:58:59;23.20;;;12.45;;
78728;SDS011;68252;44.944;20.218;2024-03-08T06:01:25;12.32;;;8.77;;
78728;SDS011;68252;44.944;20.218;2024-03-08T06:03:52;14.90;;;10.18;;
78728;SDS011;68252;44.944;20.218;2024-03-08T06:06:20;20.80;;;10.60;;
78728;SDS011;68252;44.944;20.218;2024-03-08T06:08:47;18.92;;;10.02;;
78728;SDS011;68252;44.944;20.218;2024-03-08T06:11:14;17.67;;;10.07;;
78728;SDS011;68252;44.944;20.218;2024-03-08T06:13:42;16.08;;;9.07;;
78728;SDS011;68252;44.944;20.218;2024-03-08T06:16:08;22.52;;;9.50;;
78728;SDS011;68252;44.944;20.218;2024-03-08T06:18:34;19.85;;;10.63;;
78728;SDS011;68252;44.944;20.218;2024-03-08T06:21:07;15.32;;;10.32;;
78728;SDS011;68252;44.944;20.218;2024-03-08T06:23:41;29.52;;;15.13;;
78728;SDS011;68252;44.944;20.218;2024-03-08T06:26:07;23.40;;;13.32;;
78728;SDS011;68252;44.944;20.218;2024-03-08T06:28:33;17.15;;;10.32;;
78728;SDS011;68252;44.944;20.218;2024-03-08T06:31:00;16.50;;;9.45;;
78728;SDS011;68252;44.944;20.218;2024-03-08T06:33:26;14.68;;;8.68;;
78728;SDS011;68252;44.944;20.218;2024-03-08T06:35:52;13.23;;;8.20;;
78728;SDS011;68252;44.944;20.218;2024-03-08T06:38:24;14.05;;;8.65;;
78728;SDS011;68252;44.944;20.218;2024-03-08T06:40:51;12.23;;;8.10;;
78728;SDS011;68252;44.944;20.218;2024-03-08T06:43:17;13.13;;;8.50;;
78728;SDS011;68252;44.944;20.218;2024-03-08T06:45:44;16.38;;;8.98;;
78728;SDS011;68252;44.944;20.218;2024-03-08T06:48:16;19.75;;;10.43;;
78728;SDS011;68252;44.944;20.218;2024-03-08T06:50:46;14.82;;;9.68;;
78728;SDS011;68252;44.944;20.218;2024-03-08T06:53:14;17.73;;;10.02;;
78728;SDS011;68252;44.944;20.218;2024-03-08T06:55:42;13.88;;;8.20;;
78728;SDS011;68252;44.944;20.218;2024-03-08T06:58:09;15.27;;;8.48;;
78728;SDS011;68252;44.944;20.218;2024-03-08T07:00:36;15.77;;;9.27;;
78728;SDS011;68252;44.944;20.218;2024-03-08T07:03:02;14.50;;;8.85;;
78728;SDS011;68252;44.944;20.218;2024-03-08T07:05:29;16.85;;;9.10;;
78728;SDS011;68252;44.944;20.218;2024-03-08T07:07:55;14.45;;;9.30;;
78728;SDS011;68252;44.944;20.218;2024-03-08T07:10:22;15.90;;;8.75;;
78728;SDS011;68252;44.944;20.218;2024-03-08T07:15:18;16.38;;;9.13;;
78728;SDS011;68252;44.944;20.218;2024-03-08T07:17:45;13.98;;;9.20;;
78728;SDS011;68252;44.944;20.218;2024-03-08T07:20:11;19.55;;;10.68;;
78728;SDS011;68252;44.944;20.218;2024-03-08T07:22:39;39.63;;;18.73;;
78728;SDS011;68252;44.944;20.218;2024-03-08T07:25:05;62.47;;;30.27;;
78728;SDS011;68252;44.944;20.218;2024-03-08T07:27:43;43.35;;;21.08;;
78728;SDS011;68252;44.944;20.218;2024-03-08T07:30:11;29.33;;;15.02;;
78728;SDS011;68252;44.944;20.218;2024-03-08T07:32:37;32.92;;;16.75;;
78728;SDS011;68252;44.944;20.218;2024-03-08T07:35:03;31.30;;;15.10;;
78728;SDS011;68252;44.944;20.218;2024-03-08T07:37:30;24.88;;;14.63;;
78728;SDS011;68252;44.944;20.218;2024-03-08T07:39:56;19.75;;;12.20;;
78728;SDS011;68252;44.944;20.218;2024-03-08T07:42:23;45.00;;;24.85;;
78728;SDS011;68252;44.944;20.218;2024-03-08T07:44:49;36.15;;;18.98;;
78728;SDS011;68252;44.944;20.218;2024-03-08T07:47:15;28.17;;;14.70;;
78728;SDS011;68252;44.944;20.218;2024-03-08T07:49:43;21.60;;;12.10;;
78728;SDS011;68252;44.944;20.218;2024-03-08T07:52:09;19.42;;;11.40;;
78728;SDS011;68252;44.944;20.218;2024-03-08T07:54:40;16.02;;;9.57;;
78728;SDS011;68252;44.944;20.218;2024-03-08T07:57:06;15.43;;;9.18;;
78728;SDS011;68252;44.944;20.218;2024-03-08T07:59:32;18.00;;;9.48;;
78728;SDS011;68252;44.944;20.218;2024-03-08T08:01:59;17.17;;;9.98;;
78728;SDS011;68252;44.944;20.218;2024-03-08T08:04:25;15.80;;;10.57;;
78728;SDS011;68252;44.944;20.218;2024-03-08T08:06:52;23.50;;;10.40;;
78728;SDS011;68252;44.944;20.218;2024-03-08T08:09:20;22.67;;;11.05;;
78728;SDS011;68252;44.944;20.218;2024-03-08T08:11:56;20.45;;;11.18;;
78728;SDS011;68252;44.944;20.218;2024-03-08T08:14:22;19.00;;;11.05;;
78728;SDS011;68252;44.944;20.218;2024-03-08T08:16:48;19.10;;;10.63;;
78728;SDS011;68252;44.944;20.218;2024-03-08T08:19:17;20.88;;;11.10;;
78728;SDS011;68252;44.944;20.218;2024-03-08T08:21:44;26.65;;;13.65;;
78728;SDS011;68252;44.944;20.218;2024-03-08T08:24:11;24.23;;;13.30;;
78728;SDS011;68252;44.944;20.218;2024-03-08T08:26:37;22.17;;;11.93;;
78728;SDS011;68252;44.944;20.218;2024-03-08T08:29:03;23.38;;;10.75;;
78728;SDS011;68252;44.944;20.218;2024-03-08T08:31:31;20.15;;;11.63;;
78728;SDS011;68252;44.944;20.218;2024-03-08T08:33:58;19.40;;;10.98;;
78728;SDS011;68252;44.944;20.218;2024-03-08T08:36:25;18.85;;;10.40;;
78728;SDS011;68252;44.944;20.218;2024-03-08T08:38:51;17.23;;;9.38;;
78728;SDS011;68252;44.944;20.218;2024-03-08T08:41:21;21.08;;;10.52;;
78728;SDS011;68252;44.944;20.218;2024-03-08T08:43:47;16.35;;;9.15;;
78728;SDS011;68252;44.944;20.218;2024-03-08T08:46:17;20.75;;;11.00;;
78728;SDS011;68252;44.944;20.218;2024-03-08T08:51:10;16.38;;;9.80;;
78728;SDS011;68252;44.944;20.218;2024-03-08T08:53:40;18.33;;;9.82;;
78728;SDS011;68252;44.944;20.218;2024-03-08T08:56:08;18.48;;;9.43;;
78728;SDS011;68252;44.944;20.218;2024-03-08T08:58:34;16.52;;;9.27;;
78728;SDS011;68252;44.944;20.218;2024-03-08T09:01:00;17.02;;;9.65;;
78728;SDS011;68252;44.944;20.218;2024-03-08T09:03:26;16.52;;;9.43;;
78728;SDS011;68252;44.944;20.218;2024-03-08T09:05:54;16.40;;;9.40;;
78728;SDS011;68252;44.944;20.218;2024-03-08T09:08:21;14.05;;;8.85;;
78728;SDS011;68252;44.944;20.218;2024-03-08T09:10:48;14.93;;;8.05;;
78728;SDS011;68252;44.944;20.218;2024-03-08T09:13:14;17.23;;;9.90;;
78728;SDS011;68252;44.944;20.218;2024-03-08T09:15:42;16.80;;;8.80;;
78728;SDS011;68252;44.944;20.218;2024-03-08T09:18:09;13.88;;;8.40;;
78728;SDS011;68252;44.944;20.218;2024-03-08T09:20:35;26.60;;;15.00;;
78728;SDS011;68252;44.944;20.218;2024-03-08T09:23:02;22.08;;;13.07;;
78728;SDS011;68252;44.944;20.218;2024-03-08T09:25:29;24.27;;;12.82;;
78728;SDS011;68252;44.944;20.218;2024-03-08T09:27:55;18.80;;;10.02;;
78728;SDS011;68252;44.944;20.218;2024-03-08T09:30:21;26.50;;;13.73;;
78728;SDS011;68252;44.944;20.218;2024-03-08T09:32:47;35.33;;;17.70;;
78728;SDS011;68252;44.944;20.218;2024-03-08T09:35:16;22.73;;;12.65;;
78728;SDS011;68252;44.944;20.218;2024-03-08T09:37:42;24.17;;;12.38;;
78728;SDS011;68252;44.944;20.218;2024-03-08T09:40:08;25.20;;;13.05;;
78728;SDS011;68252;44.944;20.218;2024-03-08T09:42:34;18.38;;;10.60;;
78728;SDS011;68252;44.944;20.218;2024-03-08T09:45:08;23.13;;;11.77;;
78728;SDS011;68252;44.944;20.218;2024-03-08T09:47:42;23.80;;;13.02;;
78728;SDS011;68252;44.944;20.218;2024-03-08T09:50:08;22.63;;;11.98;;
78728;SDS011;68252;44.944;20.218;2024-03-08T09:52:38;23.58;;;11.77;;
78728;SDS011;68252;44.944;20.218;2024-03-08T09:55:05;18.40;;;10.23;;
78728;SDS011;68252;44.944;20.218;2024-03-08T09:57:32;16.27;;;8.13;;
78728;SDS011;68252;44.944;20.218;2024-03-08T09:59:59;20.63;;;11.95;;
78728;SDS011;68252;44.944;20.218;2024-03-08T10:02:25;28.42;;;13.20;;
78728;SDS011;68252;44.944;20.218;2024-03-08T10:04:51;22.48;;;13.00;;
78728;SDS011;68252;44.944;20.218;2024-03-08T10:07:22;21.13;;;11.30;;
78728;SDS011;68252;44.944;20.218;2024-03-08T10:09:51;21.38;;;11.25;;
78728;SDS011;68252;44.944;20.218;2024-03-08T10:14:45;30.08;;;15.77;;
78728;SDS011;68252;44.944;20.218;2024-03-08T10:17:11;22.58;;;13.48;;
78728;SDS011;68252;44.944;20.218;2024-03-08T10:19:37;22.00;;;10.63;;
78728;SDS011;68252;44.944;20.218;2024-03-08T10:22:04;25.20;;;13.55;;
78728;SDS011;68252;44.944;20.218;2024-03-08T10:24:31;20.75;;;11.85;;
78728;SDS011;68252;44.944;20.218;2024-03-08T10:26:59;31.58;;;14.57;;
78728;SDS011;68252;44.944;20.218;2024-03-08T10:29:26;33.33;;;15.90;;
78728;SDS011;68252;44.944;20.218;2024-03-08T10:31:53;27.20;;;13.23;;
78728;SDS011;68252;44.944;20.218;2024-03-08T10:34:21;19.98;;;12.40;;
78728;SDS011;68252;44.944;20.218;2024-03-08T10:36:48;22.45;;;12.25;;
78728;SDS011;68252;44.944;20.218;2024-03-08T10:39:22;16.25;;;9.13;;
78728;SDS011;68252;44.944;20.218;2024-03-08T10:41:58;18.75;;;11.13;;
78728;SDS011;68252;44.944;20.218;2024-03-08T10:49:37;26.75;;;14.80;;
78728;SDS011;68252;44.944;20.218;2024-03-08T10:52:04;17.30;;;10.80;;
78728;SDS011;68252;44.944;20.218;2024-03-08T10:54:33;19.05;;;10.20;;
78728;SDS011;68252;44.944;20.218;2024-03-08T10:57:01;21.10;;;12.20;;
78728;SDS011;68252;44.944;20.218;2024-03-08T10:59:30;20.73;;;12.90;;
78728;SDS011;68252;44.944;20.218;2024-03-08T11:01:57;21.20;;;12.07;;
78728;SDS011;68252;44.944;20.218;2024-03-08T11:04:23;17.25;;;9.77;;
78728;SDS011;68252;44.944;20.218;2024-03-08T11:06:52;24.00;;;13.55;;
78728;SDS011;68252;44.944;20.218;2024-03-08T11:09:31;25.92;;;12.60;;
78728;SDS011;68252;44.944;20.218;2024-03-08T11:14:42;30.73;;;11.73;;
78728;SDS011;68252;44.944;20.218;2024-03-08T11:17:09;21.77;;;10.45;;
78728;SDS011;68252;44.944;20.218;2024-03-08T11:19:35;37.78;;;13.00;;
78728;SDS011;68252;44.944;20.218;2024-03-08T11:22:02;27.38;;;11.90;;
78728;SDS011;68252;44.944;20.218;2024-03-08T11:24:33;38.53;;;15.00;;
78728;SDS011;68252;44.944;20.218;2024-03-08T11:27:03;33.83;;;12.52;;
78728;SDS011;68252;44.944;20.218;2024-03-08T11:32:14;60.45;;;16.60;;
78728;SDS011;68252;44.944;20.218;2024-03-08T11:34:45;29.58;;;16.02;;
78728;SDS011;68252;44.944;20.218;2024-03-08T11:37:19;44.15;;;15.15;;
78728;SDS011;68252;44.944;20.218;2024-03-08T11:39:49;48.40;;;14.40;;
78728;SDS011;68252;44.944;20.218;2024-03-08T11:42:16;36.97;;;16.75;;
78728;SDS011;68252;44.944;20.218;2024-03-08T11:44:43;41.40;;;15.02;;
78728;SDS011;68252;44.944;20.218;2024-03-08T11:47:12;53.97;;;13.90;;
78728;SDS011;68252;44.944;20.218;2024-03-08T11:49:39;34.25;;;16.15;;
78728;SDS011;68252;44.944;20.218;2024-03-08T11:52:10;26.77;;;14.25;;
78728;SDS011;68252;44.944;20.218;2024-03-08T11:57:05;46.35;;;14.07;;
78728;SDS011;68252;44.944;20.218;2024-03-08T11:59:32;43.50;;;15.85;;
78728;SDS011;68252;44.944;20.218;2024-03-08T12:01:59;60.85;;;14.82;;
78728;SDS011;68252;44.944;20.218;2024-03-08T12:04:27;53.17;;;16.20;;
78728;SDS011;68252;44.944;20.218;2024-03-08T12:06:53;40.22;;;14.55;;
78728;SDS011;68252;44.944;20.218;2024-03-08T12:09:19;74.82;;;16.40;;
78728;SDS011;68252;44.944;20.218;2024-03-08T12:11:50;42.20;;;15.23;;
78728;SDS011;68252;44.944;20.218;2024-03-08T12:14:17;32.50;;;15.27;;
78728;SDS011;68252;44.944;20.218;2024-03-08T12:19:13;41.45;;;14.23;;
78728;SDS011;68252;44.944;20.218;2024-03-08T12:21:41;39.88;;;14.57;;
78728;SDS011;68252;44.944;20.218;2024-03-08T12:24:14;38.15;;;16.48;;
78728;SDS011;68252;44.944;20.218;2024-03-08T12:26:41;67.78;;;18.83;;
78728;SDS011;68252;44.944;20.218;2024-03-08T12:29:14;39.05;;;17.00;;
78728;SDS011;68252;44.944;20.218;2024-03-08T12:31:45;35.08;;;15.32;;
78728;SDS011;68252;44.944;20.218;2024-03-08T12:34:11;47.35;;;15.40;;
78728;SDS011;68252;44.944;20.218;2024-03-08T12:36:43;43.00;;;16.77;;
78728;SDS011;68252;44.944;20.218;2024-03-08T12:39:12;96.82;;;19.17;;
78728;SDS011;68252;44.944;20.218;2024-03-08T12:41:41;62.90;;;18.30;;
78728;SDS011;68252;44.944;20.218;2024-03-08T12:44:08;39.30;;;16.40;;
78728;SDS011;68252;44.944;20.218;2024-03-08T12:46:39;42.90;;;15.68;;
78728;SDS011;68252;44.944;20.218;2024-03-08T12:51:31;38.95;;;17.02;;
78728;SDS011;68252;44.944;20.218;2024-03-08T12:53:58;29.50;;;14.60;;
78728;SDS011;68252;44.944;20.218;2024-03-08T12:56:34;28.52;;;14.00;;
78728;SDS011;68252;44.944;20.218;2024-03-08T12:59:02;62.58;;;17.08;;
78728;SDS011;68252;44.944;20.218;2024-03-08T13:01:29;53.85;;;16.58;;
78728;SDS011;68252;44.944;20.218;2024-03-08T13:03:57;40.13;;;14.20;;
78728;SDS011;68252;44.944;20.218;2024-03-08T13:06:24;39.30;;;16.63;;
78728;SDS011;68252;44.944;20.218;2024-03-08T13:08:50;45.80;;;14.52;;
78728;SDS011;68252;44.944;20.218;2024-03-08T13:11:20;81.32;;;19.17;;
78728;SDS011;68252;44.944;20.218;2024-03-08T13:13:46;70.00;;;19.67;;
78728;SDS011;68252;44.944;20.218;2024-03-08T13:16:12;100.75;;;20.48;;
78728;SDS011;68252;44.944;20.218;2024-03-08T13:18:43;63.67;;;18.33;;
78728;SDS011;68252;44.944;20.218;2024-03-08T13:21:10;64.00;;;16.50;;
78728;SDS011;68252;44.944;20.218;2024-03-08T13:23:39;57.03;;;18.73;;
78728;SDS011;68252;44.944;20.218;2024-03-08T13:26:06;77.70;;;20.48;;
78728;SDS011;68252;44.944;20.218;2024-03-08T13:28:32;44.15;;;18.98;;
78728;SDS011;68252;44.944;20.218;2024-03-08T13:31:06;49.03;;;17.13;;
78728;SDS011;68252;44.944;20.218;2024-03-08T13:36:00;57.63;;;19.90;;
78728;SDS011;68252;44.944;20.218;2024-03-08T13:38:27;136.38;;;21.35;;
78728;SDS011;68252;44.944;20.218;2024-03-08T13:40:53;40.63;;;16.92;;
78728;SDS011;68252;44.944;20.218;2024-03-08T13:43:19;37.78;;;17.33;;
78728;SDS011;68252;44.944;20.218;2024-03-08T13:45:45;30.92;;;16.45;;
78728;SDS011;68252;44.944;20.218;2024-03-08T13:48:11;52.42;;;18.75;;
78728;SDS011;68252;44.944;20.218;2024-03-08T13:50:38;51.90;;;17.08;;
78728;SDS011;68252;44.944;20.218;2024-03-08T13:53:05;141.77;;;19.63;;
78728;SDS011;68252;44.944;20.218;2024-03-08T13:55:31;46.72;;;16.85;;
78728;SDS011;68252;44.944;20.218;2024-03-08T13:57:58;31.42;;;14.70;;
78728;SDS011;68252;44.944;20.218;2024-03-08T14:00:25;64.78;;;15.43;;
78728;SDS011;68252;44.944;20.218;2024-03-08T14:02:57;39.63;;;13.75;;
78728;SDS011;68252;44.944;20.218;2024-03-08T14:05:24;37.47;;;15.45;;
78728;SDS011;68252;44.944;20.218;2024-03-08T14:07:50;71.35;;;18.90;;
78728;SDS011;68252;44.944;20.218;2024-03-08T14:10:19;38.78;;;13.85;;
78728;SDS011;68252;44.944;20.218;2024-03-08T14:12:47;51.97;;;18.17;;
78728;SDS011;68252;44.944;20.218;2024-03-08T14:15:15;58.08;;;26.50;;
78728;SDS011;68252;44.944;20.218;2024-03-08T14:17:42;46.08;;;18.67;;
78728;SDS011;68252;44.944;20.218;2024-03-08T14:20:09;45.30;;;16.98;;
78728;SDS011;68252;44.944;20.218;2024-03-08T14:22:37;125.22;;;19.58;;
78728;SDS011;68252;44.944;20.218;2024-03-08T14:25:04;48.20;;;15.85;;
78728;SDS011;68252;44.944;20.218;2024-03-08T14:27:30;61.38;;;16.60;;
78728;SDS011;68252;44.944;20.218;2024-03-08T14:29:57;42.30;;;17.08;;
78728;SDS011;68252;44.944;20.218;2024-03-08T14:32:23;41.97;;;14.15;;
78728;SDS011;68252;44.944;20.218;2024-03-08T14:34:49;90.88;;;18.15;;
78728;SDS011;68252;44.944;20.218;2024-03-08T14:37:15;100.53;;;18.85;;
78728;SDS011;68252;44.944;20.218;2024-03-08T14:39:42;32.20;;;16.02;;
78728;SDS011;68252;44.944;20.218;2024-03-08T14:42:08;32.65;;;14.75;;
78728;SDS011;68252;44.944;20.218;2024-03-08T14:44:38;38.17;;;15.25;;
78728;SDS011;68252;44.944;20.218;2024-03-08T14:47:04;58.60;;;15.00;;